Terminal Aerodrome Forecast
Issued by NWS

Home | Current Version | Previous Version | Text Only | Print | Product List | Glossary On
Versions: 1 2 3 4 5 6 7 8 9 10 11 12 13 14 15 16 17 18 19 20 21 22 23 24 25 26 27 28 29
929
FTUS44 KOUN 211142
TAFHBR
TAF
KHBR 211142Z 2112/2212 19009KT P6SM BKN090
     FM211600 20015KT P6SM BKN060 PROB30 2121/2202 4SM -SHRA BKN025
     FM220600 35017KT P6SM FEW020 BKN060=

USA.gov is the U.S. government's official web portal to all federal, state and local government web resources and services.